sensor_id;sensor_type;location;lat;lon;timestamp;pressure;altitude;pressure_sealevel;temperature;humidity
43878;BME280;29815;48.184;11.268;2023-01-01T06:24:58;96098.53;;;8.15;100.00
43878;BME280;29815;48.184;11.268;2023-01-01T06:27:28;96097.25;;;8.18;100.00
43878;BME280;29815;48.184;11.268;2023-01-01T06:29:57;96096.19;;;8.19;100.00
43878;BME280;29815;48.184;11.268;2023-01-01T06:32:27;96106.91;;;8.19;100.00
43878;BME280;29815;48.184;11.268;2023-01-01T06:34:56;96108.69;;;8.13;100.00
43878;BME280;29815;48.184;11.268;2023-01-01T06:37:27;96115.56;;;8.09;100.00
43878;BME280;29815;48.184;11.268;2023-01-01T06:39:58;96123.03;;;8.07;100.00
43878;BME280;29815;48.184;11.268;2023-01-01T06:42:27;96117.13;;;7.93;100.00
43878;BME280;29815;48.184;11.268;2023-01-01T06:45:01;96122.50;;;7.93;100.00
43878;BME280;29815;48.184;11.268;2023-01-01T06:47:33;96122.25;;;7.95;100.00
43878;BME280;29815;48.184;11.268;2023-01-01T06:50:07;96129.13;;;8.02;100.00
43878;BME280;29815;48.184;11.268;2023-01-01T06:52:37;96128.53;;;8.00;100.00
43878;BME280;29815;48.184;11.268;2023-01-01T06:55:08;96133.31;;;7.98;100.00
43878;BME280;29815;48.184;11.268;2023-01-01T06:57:38;96132.50;;;7.98;100.00
43878;BME280;29815;48.184;11.268;2023-01-01T07:00:09;96130.75;;;8.03;100.00
43878;BME280;29815;48.184;11.268;2023-01-01T07:02:40;96143.34;;;8.03;100.00
43878;BME280;29815;48.184;11.268;2023-01-01T07:05:10;96143.34;;;8.03;100.00
43878;BME280;29815;48.184;11.268;2023-01-01T07:07:40;96146.25;;;8.01;100.00
43878;BME280;29815;48.184;11.268;2023-01-01T07:10:11;96148.94;;;8.01;100.00
43878;BME280;29815;48.184;11.268;2023-01-01T07:12:40;96152.47;;;7.90;100.00
43878;BME280;29815;48.184;11.268;2023-01-01T07:15:10;96154.25;;;7.85;100.00
43878;BME280;29815;48.184;11.268;2023-01-01T07:17:40;96149.47;;;7.87;100.00
43878;BME280;29815;48.184;11.268;2023-01-01T07:20:10;96154.13;;;7.79;100.00
43878;BME280;29815;48.184;11.268;2023-01-01T07:22:40;96163.00;;;7.68;100.00
43878;BME280;29815;48.184;11.268;2023-01-01T07:25:13;96159.78;;;7.55;100.00
43878;BME280;29815;48.184;11.268;2023-01-01T07:27:44;96163.63;;;7.47;100.00
43878;BME280;29815;48.184;11.268;2023-01-01T07:30:14;96162.38;;;7.38;100.00
43878;BME280;29815;48.184;11.268;2023-01-01T07:32:43;96165.63;;;7.28;100.00
43878;BME280;29815;48.184;11.268;2023-01-01T07:35:13;96174.03;;;7.20;100.00
43878;BME280;29815;48.184;11.268;2023-01-01T07:37:42;96173.81;;;7.10;100.00
43878;BME280;29815;48.184;11.268;2023-01-01T07:40:13;96163.19;;;7.03;100.00
43878;BME280;29815;48.184;11.268;2023-01-01T07:42:43;96175.66;;;6.98;100.00
43878;BME280;29815;48.184;11.268;2023-01-01T07:45:12;96170.88;;;7.00;100.00
43878;BME280;29815;48.184;11.268;2023-01-01T07:47:42;96168.69;;;7.08;100.00
43878;BME280;29815;48.184;11.268;2023-01-01T07:50:23;96176.56;;;7.15;100.00
43878;BME280;29815;48.184;11.268;2023-01-01T07:52:55;96182.06;;;7.20;100.00
43878;BME280;29815;48.184;11.268;2023-01-01T07:55:26;96178.22;;;7.28;100.00
43878;BME280;29815;48.184;11.268;2023-01-01T07:57:56;96178.91;;;7.35;100.00
43878;BME280;29815;48.184;11.268;2023-01-01T08:00:26;96183.00;;;7.37;100.00
43878;BME280;29815;48.184;11.268;2023-01-01T08:02:56;96182.50;;;7.40;100.00
43878;BME280;29815;48.184;11.268;2023-01-01T08:05:25;96185.28;;;7.45;100.00
43878;BME280;29815;48.184;11.268;2023-01-01T08:07:55;96192.28;;;7.46;100.00
43878;BME280;29815;48.184;11.268;2023-01-01T08:10:26;96201.72;;;7.49;100.00
43878;BME280;29815;48.184;11.268;2023-01-01T08:12:59;96200.66;;;7.50;100.00
43878;BME280;29815;48.184;11.268;2023-01-01T08:15:29;96206.38;;;7.54;100.00
43878;BME280;29815;48.184;11.268;2023-01-01T08:18:00;96212.31;;;7.56;100.00
43878;BME280;29815;48.184;11.268;2023-01-01T08:20:32;96212.06;;;7.57;100.00
43878;BME280;29815;48.184;11.268;2023-01-01T08:23:02;96209.97;;;7.59;100.00
43878;BME280;29815;48.184;11.268;2023-01-01T08:25:36;96218.56;;;7.73;100.00
43878;BME280;29815;48.184;11.268;2023-01-01T08:28:05;96209.81;;;7.77;100.00
43878;BME280;29815;48.184;11.268;2023-01-01T08:30:35;96203.06;;;7.87;100.00
43878;BME280;29815;48.184;11.268;2023-01-01T08:33:04;96216.81;;;7.90;100.00
43878;BME280;29815;48.184;11.268;2023-01-01T08:35:36;96213.72;;;7.98;100.00
43878;BME280;29815;48.184;11.268;2023-01-01T08:38:06;96211.16;;;8.03;100.00
43878;BME280;29815;48.184;11.268;2023-01-01T08:40:38;96213.47;;;8.11;100.00
43878;BME280;29815;48.184;11.268;2023-01-01T08:43:07;96212.59;;;8.23;100.00
43878;BME280;29815;48.184;11.268;2023-01-01T08:45:37;96218.41;;;8.31;100.00
43878;BME280;29815;48.184;11.268;2023-01-01T08:48:07;96218.88;;;8.40;100.00
43878;BME280;29815;48.184;11.268;2023-01-01T08:50:36;96213.50;;;8.68;100.00
43878;BME280;29815;48.184;11.268;2023-01-01T08:53:06;96214.34;;;8.86;100.00
43878;BME280;29815;48.184;11.268;2023-01-01T08:55:35;96215.34;;;8.96;100.00
43878;BME280;29815;48.184;11.268;2023-01-01T08:58:06;96221.03;;;9.00;100.00
43878;BME280;29815;48.184;11.268;2023-01-01T09:00:36;96218.66;;;9.03;100.00
43878;BME280;29815;48.184;11.268;2023-01-01T09:03:05;96225.97;;;9.08;100.00
43878;BME280;29815;48.184;11.268;2023-01-01T09:05:35;96235.50;;;9.15;100.00
43878;BME280;29815;48.184;11.268;2023-01-01T09:08:06;96236.75;;;9.25;100.00
43878;BME280;29815;48.184;11.268;2023-01-01T09:10:35;96238.69;;;9.29;100.00
43878;BME280;29815;48.184;11.268;2023-01-01T09:13:07;96234.28;;;9.40;100.00
43878;BME280;29815;48.184;11.268;2023-01-01T09:15:36;96236.88;;;9.52;100.00
43878;BME280;29815;48.184;11.268;2023-01-01T09:18:06;96244.69;;;9.53;100.00
43878;BME280;29815;48.184;11.268;2023-01-01T09:20:36;96250.56;;;9.50;100.00
43878;BME280;29815;48.184;11.268;2023-01-01T09:23:07;96252.94;;;9.46;100.00
43878;BME280;29815;48.184;11.268;2023-01-01T09:25:36;96249.66;;;9.44;100.00
43878;BME280;29815;48.184;11.268;2023-01-01T09:28:10;96243.47;;;9.44;100.00
43878;BME280;29815;48.184;11.268;2023-01-01T09:30:41;96251.28;;;9.45;100.00
43878;BME280;29815;48.184;11.268;2023-01-01T09:33:10;96248.53;;;9.57;100.00
43878;BME280;29815;48.184;11.268;2023-01-01T09:35:40;96250.03;;;9.70;100.00
43878;BME280;29815;48.184;11.268;2023-01-01T09:38:12;96247.31;;;9.87;100.00
43878;BME280;29815;48.184;11.268;2023-01-01T09:40:51;96237.84;;;10.01;100.00
43878;BME280;29815;48.184;11.268;2023-01-01T09:43:34;96239.41;;;10.18;100.00
43878;BME280;29815;48.184;11.268;2023-01-01T09:46:10;96236.28;;;10.48;100.00
43878;BME280;29815;48.184;11.268;2023-01-01T09:48:46;96237.41;;;10.79;100.00
43878;BME280;29815;48.184;11.268;2023-01-01T09:51:21;96236.28;;;11.02;100.00
43878;BME280;29815;48.184;11.268;2023-01-01T09:53:56;96236.09;;;11.41;100.00
43878;BME280;29815;48.184;11.268;2023-01-01T09:56:30;96234.13;;;11.68;100.00
43878;BME280;29815;48.184;11.268;2023-01-01T09:59:01;96220.78;;;11.89;100.00
43878;BME280;29815;48.184;11.268;2023-01-01T10:01:40;96216.56;;;12.03;100.00
43878;BME280;29815;48.184;11.268;2023-01-01T10:04:32;96209.03;;;12.15;100.00
43878;BME280;29815;48.184;11.268;2023-01-01T10:07:17;96207.22;;;12.31;100.00
43878;BME280;29815;48.184;11.268;2023-01-01T10:09:58;96208.59;;;12.43;100.00
43878;BME280;29815;48.184;11.268;2023-01-01T10:12:39;96211.59;;;12.52;100.00
43878;BME280;29815;48.184;11.268;2023-01-01T10:15:19;96206.22;;;12.62;100.00
43878;BME280;29815;48.184;11.268;2023-01-01T10:17:56;96191.13;;;12.71;100.00
43878;BME280;29815;48.184;11.268;2023-01-01T10:20:30;96193.56;;;12.88;100.00
43878;BME280;29815;48.184;11.268;2023-01-01T10:23:10;96198.97;;;12.93;100.00
43878;BME280;29815;48.184;11.268;2023-01-01T10:25:44;96198.72;;;12.95;100.00
43878;BME280;29815;48.184;11.268;2023-01-01T10:28:20;96188.47;;;13.07;100.00
43878;BME280;29815;48.184;11.268;2023-01-01T10:31:15;96187.41;;;13.18;100.00
43878;BME280;29815;48.184;11.268;2023-01-01T10:33:48;96187.94;;;13.30;100.00
43878;BME280;29815;48.184;11.268;2023-01-01T10:36:19;96195.78;;;13.37;100.00
43878;BME280;29815;48.184;11.268;2023-01-01T10:38:49;96182.78;;;13.44;100.00
43878;BME280;29815;48.184;11.268;2023-01-01T10:41:19;96192.78;;;13.53;100.00
43878;BME280;29815;48.184;11.268;2023-01-01T10:43:49;96191.16;;;13.63;100.00
43878;BME280;29815;48.184;11.268;2023-01-01T10:46:21;96193.28;;;13.71;100.00
43878;BME280;29815;48.184;11.268;2023-01-01T10:49:05;96194.63;;;13.83;100.00
43878;BME280;29815;48.184;11.268;2023-01-01T10:51:43;96191.59;;;13.95;96.48
43878;BME280;29815;48.184;11.268;2023-01-01T10:54:30;96190.72;;;14.20;90.37
43878;BME280;29815;48.184;11.268;2023-01-01T10:57:13;96177.69;;;14.27;97.47
43878;BME280;29815;48.184;11.268;2023-01-01T10:59:45;96179.84;;;14.30;93.28
43878;BME280;29815;48.184;11.268;2023-01-01T11:02:24;96181.16;;;14.38;93.46
43878;BME280;29815;48.184;11.268;2023-01-01T11:05:14;96187.38;;;14.48;91.51
43878;BME280;29815;48.184;11.268;2023-01-01T11:07:49;96170.47;;;14.67;88.53
43878;BME280;29815;48.184;11.268;2023-01-01T11:10:21;96163.94;;;14.73;84.93
43878;BME280;29815;48.184;11.268;2023-01-01T11:12:52;96165.28;;;14.75;89.74
43878;BME280;29815;48.184;11.268;2023-01-01T11:15:40;96165.19;;;14.85;85.69
43878;BME280;29815;48.184;11.268;2023-01-01T11:18:14;96160.06;;;14.84;87.47
43878;BME280;29815;48.184;11.268;2023-01-01T11:20:50;96157.84;;;14.91;87.62
43878;BME280;29815;48.184;11.268;2023-01-01T11:23:32;96155.00;;;15.06;82.44
43878;BME280;29815;48.184;11.268;2023-01-01T11:26:15;96145.22;;;15.10;84.00
43878;BME280;29815;48.184;11.268;2023-01-01T11:29:00;96146.06;;;15.06;84.99
43878;BME280;29815;48.184;11.268;2023-01-01T11:31:35;96147.94;;;15.10;83.74
43878;BME280;29815;48.184;11.268;2023-01-01T11:34:29;96146.00;;;15.16;81.33
43878;BME280;29815;48.184;11.268;2023-01-01T11:37:19;96143.00;;;15.17;82.00
43878;BME280;29815;48.184;11.268;2023-01-01T11:39:54;96137.03;;;15.15;83.52
43878;BME280;29815;48.184;11.268;2023-01-01T11:42:26;96128.06;;;15.20;82.15
43878;BME280;29815;48.184;11.268;2023-01-01T11:44:59;96127.97;;;15.30;80.28
43878;BME280;29815;48.184;11.268;2023-01-01T11:47:34;96128.25;;;15.29;83.55
43878;BME280;29815;48.184;11.268;2023-01-01T11:50:21;96133.16;;;15.27;83.05
43878;BME280;29815;48.184;11.268;2023-01-01T11:52:56;96118.78;;;15.26;85.61
43878;BME280;29815;48.184;11.268;2023-01-01T11:55:36;96116.31;;;15.30;83.98
43878;BME280;29815;48.184;11.268;2023-01-01T11:58:14;96108.63;;;15.37;82.29
43878;BME280;29815;48.184;11.268;2023-01-01T12:00:49;96115.16;;;15.36;84.68
43878;BME280;29815;48.184;11.268;2023-01-01T12:03:24;96111.13;;;15.33;81.43
43878;BME280;29815;48.184;11.268;2023-01-01T12:06:06;96112.19;;;15.32;81.76
43878;BME280;29815;48.184;11.268;2023-01-01T12:08:45;96111.63;;;15.35;81.03
43878;BME280;29815;48.184;11.268;2023-01-01T12:11:28;96108.06;;;15.40;83.75
43878;BME280;29815;48.184;11.268;2023-01-01T12:14:12;96116.44;;;15.43;84.55
43878;BME280;29815;48.184;11.268;2023-01-01T12:16:54;96114.59;;;15.68;77.75
43878;BME280;29815;48.184;11.268;2023-01-01T12:19:31;96103.00;;;15.86;76.10
43878;BME280;29815;48.184;11.268;2023-01-01T12:22:11;96102.00;;;16.01;75.12
43878;BME280;29815;48.184;11.268;2023-01-01T12:24:45;96097.31;;;16.06;76.40
43878;BME280;29815;48.184;11.268;2023-01-01T12:27:26;96095.63;;;16.10;74.30
43878;BME280;29815;48.184;11.268;2023-01-01T12:30:11;96097.78;;;16.13;74.53
43878;BME280;29815;48.184;11.268;2023-01-01T12:33:12;96095.06;;;16.13;73.54
43878;BME280;29815;48.184;11.268;2023-01-01T12:36:00;96090.50;;;16.28;74.65
43878;BME280;29815;48.184;11.268;2023-01-01T12:39:02;96088.91;;;16.27;72.79
43878;BME280;29815;48.184;11.268;2023-01-01T12:41:59;96089.41;;;16.29;73.00
43878;BME280;29815;48.184;11.268;2023-01-01T12:44:40;96091.47;;;16.37;71.76
43878;BME280;29815;48.184;11.268;2023-01-01T12:47:31;96086.84;;;16.37;71.76
43878;BME280;29815;48.184;11.268;2023-01-01T12:50:15;96082.88;;;16.30;72.54
43878;BME280;29815;48.184;11.268;2023-01-01T12:52:58;96083.75;;;16.25;72.44
43878;BME280;29815;48.184;11.268;2023-01-01T12:56:13;96088.97;;;16.21;71.60
43878;BME280;29815;48.184;11.268;2023-01-01T12:58:55;96090.13;;;16.15;73.03
43878;BME280;29815;48.184;11.268;2023-01-01T13:01:30;96090.41;;;16.14;74.81
43878;BME280;29815;48.184;11.268;2023-01-01T13:04:04;96082.25;;;16.14;73.05
43878;BME280;29815;48.184;11.268;2023-01-01T13:06:39;96084.69;;;16.15;74.26
43878;BME280;29815;48.184;11.268;2023-01-01T13:09:17;96087.09;;;16.17;73.76
43878;BME280;29815;48.184;11.268;2023-01-01T13:11:55;96089.25;;;16.20;74.42
43878;BME280;29815;48.184;11.268;2023-01-01T13:14:27;96076.69;;;16.24;74.14
43878;BME280;29815;48.184;11.268;2023-01-01T13:16:57;96075.09;;;16.23;75.40
43878;BME280;29815;48.184;11.268;2023-01-01T13:19:31;96072.44;;;16.18;74.42
43878;BME280;29815;48.184;11.268;2023-01-01T13:22:37;96075.00;;;16.09;76.09
43878;BME280;29815;48.184;11.268;2023-01-01T13:25:21;96078.59;;;16.05;76.21
43878;BME280;29815;48.184;11.268;2023-01-01T13:28:09;96080.00;;;16.02;75.81
43878;BME280;29815;48.184;11.268;2023-01-01T13:30:48;96081.59;;;16.03;77.31
43878;BME280;29815;48.184;11.268;2023-01-01T13:33:22;96077.28;;;16.02;77.00
43878;BME280;29815;48.184;11.268;2023-01-01T13:36:29;96080.56;;;15.99;77.90
43878;BME280;29815;48.184;11.268;2023-01-01T13:39:00;96080.78;;;16.03;75.59
43878;BME280;29815;48.184;11.268;2023-01-01T13:41:32;96085.59;;;16.11;74.29
43878;BME280;29815;48.184;11.268;2023-01-01T13:44:17;96081.69;;;16.17;74.42
43878;BME280;29815;48.184;11.268;2023-01-01T13:47:03;96078.66;;;16.18;75.58
43878;BME280;29815;48.184;11.268;2023-01-01T13:50:01;96076.19;;;16.22;74.17
43878;BME280;29815;48.184;11.268;2023-01-01T13:52:56;96082.28;;;16.33;70.83
43878;BME280;29815;48.184;11.268;2023-01-01T13:56:02;96080.22;;;16.43;70.98
43878;BME280;29815;48.184;11.268;2023-01-01T13:58:56;96080.75;;;16.45;72.89
43878;BME280;29815;48.184;11.268;2023-01-01T14:01:54;96074.22;;;16.46;72.67
43878;BME280;29815;48.184;11.268;2023-01-01T14:04:38;96073.91;;;16.48;74.24
43878;BME280;29815;48.184;11.268;2023-01-01T14:07:19;96071.13;;;16.53;74.15
43878;BME280;29815;48.184;11.268;2023-01-01T14:10:24;96071.81;;;16.64;73.77
43878;BME280;29815;48.184;11.268;2023-01-01T14:13:12;96070.47;;;16.80;77.21
43878;BME280;29815;48.184;11.268;2023-01-01T14:15:51;96079.28;;;16.90;77.74
43878;BME280;29815;48.184;11.268;2023-01-01T14:18:30;96074.69;;;17.05;79.38
43878;BME280;29815;48.184;11.268;2023-01-01T14:21:02;96066.97;;;17.25;79.78
43878;BME280;29815;48.184;11.268;2023-01-01T14:23:40;96070.22;;;17.41;77.34
43878;BME280;29815;48.184;11.268;2023-01-01T14:26:14;96073.16;;;17.58;77.23
43878;BME280;29815;48.184;11.268;2023-01-01T14:28:46;96061.59;;;17.67;75.34
43878;BME280;29815;48.184;11.268;2023-01-01T14:31:20;96061.00;;;17.70;75.06
43878;BME280;29815;48.184;11.268;2023-01-01T14:33:50;96069.97;;;17.70;75.38
43878;BME280;29815;48.184;11.268;2023-01-01T14:36:23;96068.66;;;17.68;73.63
43878;BME280;29815;48.184;11.268;2023-01-01T14:38:55;96068.16;;;17.66;74.53
43878;BME280;29815;48.184;11.268;2023-01-01T14:41:29;96070.44;;;17.58;73.81
43878;BME280;29815;48.184;11.268;2023-01-01T14:44:05;96077.00;;;17.44;74.01
43878;BME280;29815;48.184;11.268;2023-01-01T14:46:42;96085.59;;;17.18;74.47
43878;BME280;29815;48.184;11.268;2023-01-01T14:49:17;96087.81;;;16.84;75.29
43878;BME280;29815;48.184;11.268;2023-01-01T14:51:55;96085.00;;;16.51;76.62
43878;BME280;29815;48.184;11.268;2023-01-01T14:54:32;96098.78;;;16.17;78.46
43878;BME280;29815;48.184;11.268;2023-01-01T14:57:08;96089.63;;;15.89;81.21
43878;BME280;29815;48.184;11.268;2023-01-01T14:59:46;96091.59;;;15.60;84.09
43878;BME280;29815;48.184;11.268;2023-01-01T15:02:22;96104.88;;;15.33;87.26
43878;BME280;29815;48.184;11.268;2023-01-01T15:04:54;96096.97;;;15.07;90.13
43878;BME280;29815;48.184;11.268;2023-01-01T15:07:25;96098.56;;;14.79;93.14
43878;BME280;29815;48.184;11.268;2023-01-01T15:09:58;96099.28;;;14.56;95.13
43878;BME280;29815;48.184;11.268;2023-01-01T15:12:33;96091.81;;;14.38;97.59
43878;BME280;29815;48.184;11.268;2023-01-01T15:18:05;96102.84;;;13.97;100.00
43878;BME280;29815;48.184;11.268;2023-01-01T15:20:34;96111.31;;;13.75;100.00
43878;BME280;29815;48.184;11.268;2023-01-01T15:23:04;96101.94;;;13.52;100.00
43878;BME280;29815;48.184;11.268;2023-01-01T15:25:41;96109.28;;;13.32;100.00
43878;BME280;29815;48.184;11.268;2023-01-01T15:28:17;96103.34;;;13.04;100.00
43878;BME280;29815;48.184;11.268;2023-01-01T15:30:52;96104.44;;;12.73;100.00
43878;BME280;29815;48.184;11.268;2023-01-01T15:33:24;96099.28;;;12.46;100.00
43878;BME280;29815;48.184;11.268;2023-01-01T15:35:54;96104.91;;;12.34;100.00
43878;BME280;29815;48.184;11.268;2023-01-01T15:38:30;96102.22;;;12.24;100.00
43878;BME280;29815;48.184;11.268;2023-01-01T15:41:23;96098.66;;;12.13;100.00
43878;BME280;29815;48.184;11.268;2023-01-01T15:44:07;96103.75;;;12.05;100.00
43878;BME280;29815;48.184;11.268;2023-01-01T15:46:45;96104.56;;;11.95;100.00
43878;BME280;29815;48.184;11.268;2023-01-01T15:49:24;96104.47;;;11.80;100.00
43878;BME280;29815;48.184;11.268;2023-01-01T15:51:57;96105.50;;;11.69;100.00
43878;BME280;29815;48.184;11.268;2023-01-01T15:54:32;96101.13;;;11.58;100.00
43878;BME280;29815;48.184;11.268;2023-01-01T15:57:17;96092.19;;;11.47;100.00
43878;BME280;29815;48.184;11.268;2023-01-01T15:59:49;96097.78;;;11.35;100.00
43878;BME280;29815;48.184;11.268;2023-01-01T16:02:25;96095.78;;;11.15;100.00
43878;BME280;29815;48.184;11.268;2023-01-01T16:04:59;96096.44;;;10.96;100.00
43878;BME280;29815;48.184;11.268;2023-01-01T16:07:30;96095.22;;;10.76;100.00
43878;BME280;29815;48.184;11.268;2023-01-01T16:10:10;96093.50;;;10.60;100.00
43878;BME280;29815;48.184;11.268;2023-01-01T16:12:41;96092.28;;;10.46;100.00
43878;BME280;29815;48.184;11.268;2023-01-01T16:15:14;96098.09;;;10.33;100.00
43878;BME280;29815;48.184;11.268;2023-01-01T16:17:43;96098.28;;;10.26;100.00
43878;BME280;29815;48.184;11.268;2023-01-01T16:20:17;96098.53;;;10.25;100.00
43878;BME280;29815;48.184;11.268;2023-01-01T16:22:48;96100.59;;;10.17;100.00
43878;BME280;29815;48.184;11.268;2023-01-01T16:25:20;96100.81;;;10.11;100.00
43878;BME280;29815;48.184;11.268;2023-01-01T16:27:50;96098.63;;;10.08;100.00
43878;BME280;29815;48.184;11.268;2023-01-01T16:30:24;96096.69;;;10.03;100.00
43878;BME280;29815;48.184;11.268;2023-01-01T16:32:54;96099.06;;;10.00;100.00
43878;BME280;29815;48.184;11.268;2023-01-01T16:35:25;96093.81;;;9.88;100.00
43878;BME280;29815;48.184;11.268;2023-01-01T16:37:55;96095.53;;;9.72;100.00
43878;BME280;29815;48.184;11.268;2023-01-01T16:40:24;96095.78;;;9.49;100.00
43878;BME280;29815;48.184;11.268;2023-01-01T16:43:00;96096.34;;;9.29;100.00
43878;BME280;29815;48.184;11.268;2023-01-01T16:45:31;96086.75;;;9.16;100.00
43878;BME280;29815;48.184;11.268;2023-01-01T16:48:01;96088.19;;;9.02;100.00
43878;BME280;29815;48.184;11.268;2023-01-01T16:50:32;96077.94;;;8.99;100.00
43878;BME280;29815;48.184;11.268;2023-01-01T16:53:01;96075.56;;;8.86;100.00
43878;BME280;29815;48.184;11.268;2023-01-01T16:55:30;96076.53;;;8.80;100.00
43878;BME280;29815;48.184;11.268;2023-01-01T16:58:00;96076.78;;;8.78;100.00
43878;BME280;29815;48.184;11.268;2023-01-01T17:00:51;96068.94;;;8.72;100.00
43878;BME280;29815;48.184;11.268;2023-01-01T17:03:27;96068.28;;;8.65;100.00
43878;BME280;29815;48.184;11.268;2023-01-01T17:06:03;96063.78;;;8.54;100.00
43878;BME280;29815;48.184;11.268;2023-01-01T17:08:35;96070.41;;;8.46;100.00
43878;BME280;29815;48.184;11.268;2023-01-01T17:11:08;96074.19;;;8.33;100.00
43878;BME280;29815;48.184;11.268;2023-01-01T17:13:41;96071.53;;;8.22;100.00
43878;BME280;29815;48.184;11.268;2023-01-01T17:16:12;96062.88;;;8.14;100.00
43878;BME280;29815;48.184;11.268;2023-01-01T17:18:54;96074.22;;;8.05;100.00
43878;BME280;29815;48.184;11.268;2023-01-01T17:21:46;96074.03;;;7.95;100.00
43878;BME280;29815;48.184;11.268;2023-01-01T17:24:18;96071.34;;;7.95;100.00
43878;BME280;29815;48.184;11.268;2023-01-01T17:26:51;96076.06;;;7.88;100.00
43878;BME280;29815;48.184;11.268;2023-01-01T17:29:22;96071.75;;;7.87;100.00
43878;BME280;29815;48.184;11.268;2023-01-01T17:31:52;96081.88;;;7.85;100.00
43878;BME280;29815;48.184;11.268;2023-01-01T17:34:22;96080.50;;;7.82;100.00
43878;BME280;29815;48.184;11.268;2023-01-01T17:36:52;96072.59;;;7.75;100.00
43878;BME280;29815;48.184;11.268;2023-01-01T17:39:22;96081.81;;;7.68;100.00
43878;BME280;29815;48.184;11.268;2023-01-01T17:41:51;96077.09;;;7.58;100.00
43878;BME280;29815;48.184;11.268;2023-01-01T17:44:21;96070.59;;;7.54;100.00
43878;BME280;29815;48.184;11.268;2023-01-01T17:46:51;96083.16;;;7.54;100.00
43878;BME280;29815;48.184;11.268;2023-01-01T17:49:22;96073.97;;;7.50;100.00
43878;BME280;29815;48.184;11.268;2023-01-01T17:51:53;96069.78;;;7.42;100.00
43878;BME280;29815;48.184;11.268;2023-01-01T17:54:22;96066.47;;;7.35;100.00
43878;BME280;29815;48.184;11.268;2023-01-01T17:56:53;96061.47;;;7.27;100.00
43878;BME280;29815;48.184;11.268;2023-01-01T17:59:25;96060.06;;;7.24;100.00
43878;BME280;29815;48.184;11.268;2023-01-01T18:01:55;96061.47;;;7.27;100.00
43878;BME280;29815;48.184;11.268;2023-01-01T18:04:25;96060.88;;;7.25;100.00
43878;BME280;29815;48.184;11.268;2023-01-01T18:06:56;96052.63;;;7.26;100.00
43878;BME280;29815;48.184;11.268;2023-01-01T18:09:33;96048.31;;;7.25;100.00
43878;BME280;29815;48.184;11.268;2023-01-01T18:12:05;96053.91;;;7.24;100.00
43878;BME280;29815;48.184;11.268;2023-01-01T18:14:35;96056.56;;;7.24;100.00
43878;BME280;29815;48.184;11.268;2023-01-01T18:17:04;96054.94;;;7.23;100.00
43878;BME280;29815;48.184;11.268;2023-01-01T18:19:34;96061.69;;;7.25;100.00
43878;BME280;29815;48.184;11.268;2023-01-01T18:22:07;96054.59;;;7.31;100.00
43878;BME280;29815;48.184;11.268;2023-01-01T18:24:36;96049.16;;;7.54;100.00
43878;BME280;29815;48.184;11.268;2023-01-01T18:27:05;96045.22;;;7.73;100.00
43878;BME280;29815;48.184;11.268;2023-01-01T18:29:35;96046.09;;;7.91;100.00
43878;BME280;29815;48.184;11.268;2023-01-01T18:32:05;96032.13;;;8.22;100.00
43878;BME280;29815;48.184;11.268;2023-01-01T18:34:34;96036.34;;;8.46;100.00
43878;BME280;29815;48.184;11.268;2023-01-01T18:37:04;96038.75;;;8.65;100.00
43878;BME280;29815;48.184;11.268;2023-01-01T18:39:35;96032.13;;;8.89;100.00
43878;BME280;29815;48.184;11.268;2023-01-01T18:42:32;96034.28;;;9.09;100.00
43878;BME280;29815;48.184;11.268;2023-01-01T18:45:15;96042.22;;;9.21;100.00
43878;BME280;29815;48.184;11.268;2023-01-01T18:47:46;96038.72;;;9.20;100.00
43878;BME280;29815;48.184;11.268;2023-01-01T18:50:19;96033.44;;;9.25;100.00
43878;BME280;29815;48.184;11.268;2023-01-01T18:52:58;96028.09;;;9.30;100.00
43878;BME280;29815;48.184;11.268;2023-01-01T18:55:35;96025.22;;;9.37;100.00
43878;BME280;29815;48.184;11.268;2023-01-01T18:58:23;96032.03;;;9.44;100.00
43878;BME280;29815;48.184;11.268;2023-01-01T19:00:53;96024.38;;;9.53;100.00
43878;BME280;29815;48.184;11.268;2023-01-01T19:03:23;96022.59;;;9.64;100.00
43878;BME280;29815;48.184;11.268;2023-01-01T19:05:57;96021.03;;;9.68;100.00
43878;BME280;29815;48.184;11.268;2023-01-01T19:08:28;96014.59;;;9.69;100.00
43878;BME280;29815;48.184;11.268;2023-01-01T19:11:01;96021.03;;;9.68;100.00
43878;BME280;29815;48.184;11.268;2023-01-01T19:13:32;96015.84;;;9.61;100.00
43878;BME280;29815;48.184;11.268;2023-01-01T19:16:17;96016.50;;;9.46;100.00
43878;BME280;29815;48.184;11.268;2023-01-01T19:18:53;96018.72;;;9.33;100.00
43878;BME280;29815;48.184;11.268;2023-01-01T19:21:25;96014.25;;;9.16;100.00
43878;BME280;29815;48.184;11.268;2023-01-01T19:23:57;96020.25;;;9.02;100.00
43878;BME280;29815;48.184;11.268;2023-01-01T19:26:32;96010.84;;;8.82;100.00
43878;BME280;29815;48.184;11.268;2023-01-01T19:29:11;96010.94;;;8.71;100.00
43878;BME280;29815;48.184;11.268;2023-01-01T19:31:48;96013.72;;;8.59;100.00
43878;BME280;29815;48.184;11.268;2023-01-01T19:34:19;96010.56;;;8.45;100.00
43878;BME280;29815;48.184;11.268;2023-01-01T19:36:50;96008.44;;;8.31;100.00
43878;BME280;29815;48.184;11.268;2023-01-01T19:39:19;96009.06;;;8.21;100.00
43878;BME280;29815;48.184;11.268;2023-01-01T19:41:50;96013.31;;;8.17;100.00
43878;BME280;29815;48.184;11.268;2023-01-01T19:44:20;96010.38;;;8.19;100.00
43878;BME280;29815;48.184;11.268;2023-01-01T19:46:52;96003.47;;;8.23;100.00
43878;BME280;29815;48.184;11.268;2023-01-01T19:49:23;96000.53;;;8.24;100.00
43878;BME280;29815;48.184;11.268;2023-01-01T19:51:53;96000.38;;;8.31;100.00
43878;BME280;29815;48.184;11.268;2023-01-01T19:54:22;96004.06;;;8.41;100.00
43878;BME280;29815;48.184;11.268;2023-01-01T19:56:53;95996.72;;;8.54;100.00